Time;durP1;ratioP1;P1;durP2;ratioP2;P2;SDS_P1;SDS_P2;PMS_P1;PMS_P2;Temp;Humidity;BMP_temperature;BMP_pressure;BME280_temperature;BME280_humidity;BME280_pressure;Samples;Min_cycle;Max_cycle;Signal;HPM_P1;HPM_P2
2022/10/31 00:02:19;;;;;;;28.07;25.13;;;12.80;1.00;;;;;;6387715;27;20723;-53
2022/10/31 00:05:22;;;;;;;27.73;24.60;;;12.70;1.00;;;;;;6373045;27;20292;-54
2022/10/31 00:08:26;;;;;;;28.57;25.10;;;12.70;1.00;;;;;;6381934;27;20400;-55
2022/10/31 00:11:29;;;;;;;27.53;24.80;;;12.70;1.00;;;;;;6385524;27;20396;-54
2022/10/31 00:14:31;;;;;;;29.60;25.97;;;12.70;1.00;;;;;;6384053;27;20236;-55
2022/10/31 00:17:36;;;;;;;28.83;25.80;;;12.70;1.00;;;;;;6383873;27;20234;-55
2022/10/31 00:20:39;;;;;;;31.83;26.40;;;12.70;1.00;;;;;;6377238;27;20227;-54
2022/10/31 00:23:44;;;;;;;32.07;26.87;;;12.70;1.00;;;;;;6359982;27;20402;-54
2022/10/31 00:26:47;;;;;;;27.60;24.67;;;12.70;1.00;;;;;;6359568;27;20373;-54
2022/10/31 00:29:59;;;;;;;28.00;25.00;;;12.60;1.00;;;;;;6307406;27;20581;-54
2022/10/31 00:33:05;;;;;;;33.80;26.97;;;12.60;1.00;;;;;;6281128;28;20628;-54
2022/10/31 00:36:11;;;;;;;29.40;26.13;;;12.60;1.00;;;;;;6305330;28;20229;-53
2022/10/31 00:39:14;;;;;;;29.23;26.13;;;12.60;1.00;;;;;;6305365;28;20406;-55
2022/10/31 00:42:17;;;;;;;30.23;25.93;;;12.60;1.00;;;;;;6298490;27;20236;-54
2022/10/31 00:45:21;;;;;;;29.50;26.30;;;12.50;1.00;;;;;;6306766;28;20687;-53
2022/10/31 00:48:24;;;;;;;29.03;26.00;;;12.50;1.00;;;;;;6299662;28;20245;-54
2022/10/31 00:51:30;;;;;;;33.77;28.53;;;12.50;1.00;;;;;;6280381;28;20237;-54
2022/10/31 00:54:33;;;;;;;33.67;27.37;;;12.50;1.00;;;;;;6305731;27;20231;-54
2022/10/31 00:57:35;;;;;;;29.93;25.47;;;12.40;1.00;;;;;;6309466;28;20233;-54
2022/10/31 01:00:40;;;;;;;30.50;25.10;;;12.40;1.00;;;;;;6317471;27;20623;-55
2022/10/31 01:03:42;;;;;;;29.13;25.17;;;12.50;1.00;;;;;;6305002;28;20232;-54
2022/10/31 01:06:45;;;;;;;26.43;23.57;;;12.50;1.00;;;;;;6303681;27;20233;-53
2022/10/31 01:09:48;;;;;;;26.70;21.63;;;12.50;1.00;;;;;;6327629;27;20281;-54
2022/10/31 01:12:54;;;;;;;24.07;21.67;;;12.50;1.00;;;;;;6312003;27;20740;-55
2022/10/31 01:16:07;;;;;;;23.50;21.10;;;12.50;1.00;;;;;;6279745;28;20408;-55
2022/10/31 01:19:09;;;;;;;22.70;19.93;;;12.50;1.00;;;;;;6278929;28;20225;-54
2022/10/31 01:22:12;;;;;;;23.93;21.63;;;12.50;1.00;;;;;;6279657;28;20242;-55
2022/10/31 01:25:15;;;;;;;20.67;18.77;;;12.50;1.00;;;;;;6290732;27;20727;-54
2022/10/31 01:28:18;;;;;;;21.23;18.83;;;12.60;1.00;;;;;;6304001;28;20751;-56
2022/10/31 01:31:26;;;;;;;19.20;16.47;;;12.50;1.00;;;;;;6308247;27;21840;-54
2022/10/31 01:34:28;;;;;;;18.77;17.07;;;12.50;1.00;;;;;;6306437;27;20737;-54
2022/10/31 01:37:32;;;;;;;23.53;19.80;;;12.50;1.00;;;;;;6312299;27;20609;-54
2022/10/31 01:40:34;;;;;;;20.43;18.10;;;12.50;1.00;;;;;;6300248;27;20272;-53
2022/10/31 01:43:50;;;;;;;19.87;17.87;;;12.50;1.00;;;;;;6295584;28;20241;-55
2022/10/31 01:46:58;;;;;;;26.50;20.43;;;12.50;1.00;;;;;;6261963;28;20235;-54
2022/10/31 01:50:04;;;;;;;20.97;18.10;;;12.50;1.00;;;;;;6261945;28;20738;-55
2022/10/31 01:53:09;;;;;;;22.53;19.57;;;12.40;1.00;;;;;;6275393;28;20255;-53
2022/10/31 01:56:12;;;;;;;20.33;18.17;;;12.40;1.00;;;;;;6308224;28;20233;-53
2022/10/31 01:59:18;;;;;;;21.83;18.90;;;12.40;1.00;;;;;;6306379;28;20244;-54
2022/10/31 02:02:23;;;;;;;19.13;17.17;;;12.40;1.00;;;;;;6309357;28;20237;-54
2022/10/31 02:05:30;;;;;;;21.00;16.93;;;12.30;1.00;;;;;;6283047;28;20229;-54
2022/10/31 02:08:35;;;;;;;18.77;16.87;;;12.30;1.00;;;;;;6302234;28;20550;-54
2022/10/31 02:11:38;;;;;;;24.33;20.17;;;12.30;1.00;;;;;;6297360;28;20429;-54
2022/10/31 02:14:44;;;;;;;21.57;17.70;;;12.30;1.00;;;;;;6287749;28;20636;-54
2022/10/31 02:17:50;;;;;;;20.03;18.00;;;12.20;1.00;;;;;;6285762;28;20602;-54
2022/10/31 02:20:59;;;;;;;18.53;16.73;;;12.20;1.00;;;;;;6286433;28;20237;-56
2022/10/31 02:24:41;;;;;;;20.07;17.97;;;12.20;1.00;;;;;;6286009;28;20257;-55
2022/10/31 02:28:02;;;;;;;18.87;16.97;;;12.20;1.00;;;;;;6285662;28;20234;-54
2022/10/31 02:31:19;;;;;;;18.73;16.73;;;12.20;1.00;;;;;;6286666;28;20521;-54
2022/10/31 02:34:26;;;;;;;17.83;16.00;;;12.20;1.00;;;;;;6301514;28;20249;-54
2022/10/31 02:37:35;;;;;;;16.63;15.03;;;12.10;1.00;;;;;;6294262;28;20233;-54
2022/10/31 02:40:49;;;;;;;17.37;15.83;;;12.10;1.00;;;;;;6294749;28;20413;-53
2022/10/31 02:44:00;;;;;;;18.40;16.50;;;12.10;1.00;;;;;;6298022;28;20898;-54
2022/10/31 02:47:09;;;;;;;16.60;15.00;;;12.10;1.00;;;;;;6284510;28;20603;-56
2022/10/31 02:50:16;;;;;;;16.57;15.07;;;12.10;1.00;;;;;;6285147;28;20252;-58
2022/10/31 02:53:19;;;;;;;16.57;15.07;;;12.00;1.00;;;;;;6284758;28;20245;-56
2022/10/31 02:56:28;;;;;;;15.93;14.50;;;12.00;1.00;;;;;;6284893;28;20251;-54
2022/10/31 02:59:36;;;;;;;16.87;14.63;;;12.00;1.00;;;;;;6294842;28;20240;-55
2022/10/31 03:03:02;;;;;;;16.07;14.57;;;12.00;1.00;;;;;;6283927;28;20225;-54
2022/10/31 03:06:15;;;;;;;21.87;17.40;;;11.90;1.00;;;;;;6284824;28;20265;-54
2022/10/31 03:09:25;;;;;;;23.40;17.40;;;11.90;1.00;;;;;;6299708;28;20233;-53
2022/10/31 03:12:31;;;;;;;19.30;17.27;;;11.90;1.00;;;;;;6300909;28;20731;-54
2022/10/31 03:15:37;;;;;;;18.83;16.00;;;12.00;1.00;;;;;;6310539;28;20229;-55
2022/10/31 03:18:47;;;;;;;16.30;14.70;;;12.00;1.00;;;;;;6307598;28;20315;-54
2022/10/31 03:21:55;;;;;;;18.03;16.13;;;12.00;1.00;;;;;;6284710;28;20248;-55
2022/10/31 03:25:00;;;;;;;16.37;14.80;;;12.00;1.00;;;;;;6284799;28;20810;-54
2022/10/31 03:28:04;;;;;;;15.63;13.97;;;12.00;1.00;;;;;;6284362;28;20537;-56
2022/10/31 03:31:09;;;;;;;20.60;16.67;;;12.00;1.00;;;;;;6284310;28;20252;-56
2022/10/31 03:34:21;;;;;;;15.97;14.40;;;12.00;1.00;;;;;;6292294;28;20491;-54
2022/10/31 03:37:28;;;;;;;17.73;15.90;;;12.10;1.00;;;;;;6292134;28;20725;-56
2022/10/31 03:40:34;;;;;;;16.53;14.87;;;12.00;1.00;;;;;;6301511;28;20237;-55
2022/10/31 03:43:41;;;;;;;17.00;15.27;;;12.00;1.00;;;;;;6289952;28;20237;-54
2022/10/31 03:46:44;;;;;;;16.27;14.67;;;12.00;1.00;;;;;;6286513;28;20234;-54
2022/10/31 03:49:49;;;;;;;16.60;15.00;;;12.00;1.00;;;;;;6284701;28;20248;-54
2022/10/31 03:52:58;;;;;;;17.17;14.93;;;12.00;1.00;;;;;;6282078;28;20247;-55
2022/10/31 03:56:03;;;;;;;17.40;15.40;;;12.00;1.00;;;;;;6286660;28;20233;-54
2022/10/31 03:59:10;;;;;;;19.73;15.77;;;12.00;1.00;;;;;;6305433;28;20304;-54
2022/10/31 04:02:16;;;;;;;15.97;14.47;;;12.00;1.00;;;;;;6284581;28;20252;-55
2022/10/31 04:05:22;;;;;;;16.40;14.60;;;12.00;1.00;;;;;;6284820;28;20229;-55
2022/10/31 04:08:28;;;;;;;24.70;17.60;;;11.90;1.00;;;;;;6294179;28;20241;-52
2022/10/31 04:11:37;;;;;;;17.63;15.80;;;11.90;1.00;;;;;;6299317;28;20248;-54
2022/10/31 04:14:42;;;;;;;19.87;15.60;;;11.90;1.00;;;;;;6285823;28;20229;-54
2022/10/31 04:17:48;;;;;;;19.90;15.20;;;11.90;1.00;;;;;;6284198;28;20244;-55
2022/10/31 04:21:01;;;;;;;16.47;14.20;;;11.90;1.00;;;;;;6284585;28;20422;-55
2022/10/31 04:24:04;;;;;;;19.33;15.20;;;11.90;1.00;;;;;;6284395;28;20233;-54
2022/10/31 04:27:07;;;;;;;16.37;14.67;;;11.90;1.00;;;;;;6284082;28;20233;-54
2022/10/31 04:30:11;;;;;;;15.63;14.13;;;11.90;1.00;;;;;;6284320;28;20241;-54
2022/10/31 04:33:14;;;;;;;15.80;14.20;;;11.90;1.00;;;;;;6273939;28;20293;-54
2022/10/31 04:36:18;;;;;;;18.20;14.93;;;11.80;1.00;;;;;;6300832;28;20237;-54
2022/10/31 04:39:21;;;;;;;17.20;14.33;;;11.80;1.00;;;;;;6289793;28;20235;-53
2022/10/31 04:42:30;;;;;;;19.60;14.70;;;11.80;1.00;;;;;;6305260;28;20413;-55
2022/10/31 04:45:33;;;;;;;17.67;14.43;;;11.80;1.00;;;;;;6298711;28;20232;-55
2022/10/31 04:48:36;;;;;;;17.33;15.37;;;11.80;1.00;;;;;;6284319;28;20236;-56
2022/10/31 04:51:40;;;;;;;16.07;14.47;;;11.80;1.00;;;;;;6298088;28;20236;-55
2022/10/31 04:54:43;;;;;;;19.43;14.07;;;11.80;1.00;;;;;;6308086;28;20644;-54
2022/10/31 04:57:46;;;;;;;15.63;13.97;;;11.80;1.00;;;;;;6293059;28;20614;-55
2022/10/31 05:00:53;;;;;;;17.63;15.73;;;11.80;1.00;;;;;;6290962;28;20764;-54
2022/10/31 05:03:56;;;;;;;17.50;14.63;;;11.80;1.00;;;;;;6299522;28;20303;-54
2022/10/31 05:07:00;;;;;;;16.13;14.50;;;11.80;1.00;;;;;;6293776;28;20618;-54
2022/10/31 05:10:03;;;;;;;18.70;14.93;;;11.80;1.00;;;;;;6302414;28;20232;-54
2022/10/31 05:13:06;;;;;;;17.27;15.47;;;11.80;1.00;;;;;;6289519;28;20532;-55
2022/10/31 05:16:09;;;;;;;17.63;14.90;;;11.70;1.00;;;;;;6298990;28;20259;-54
2022/10/31 05:19:12;;;;;;;19.37;15.60;;;11.80;1.00;;;;;;6303669;28;20236;-53
2022/10/31 05:22:16;;;;;;;26.27;15.70;;;11.80;1.00;;;;;;6301012;28;20244;-54
2022/10/31 05:25:21;;;;;;;16.50;14.80;;;11.80;1.00;;;;;;6280266;28;20237;-53
2022/10/31 05:28:24;;;;;;;19.70;14.73;;;11.80;1.00;;;;;;6298530;28;20240;-53
2022/10/31 05:31:26;;;;;;;21.03;15.57;;;11.80;1.00;;;;;;6300917;28;20241;-54
2022/10/31 05:34:29;;;;;;;19.30;15.47;;;11.80;1.00;;;;;;6303445;28;20238;-54
2022/10/31 05:37:33;;;;;;;16.97;14.93;;;11.80;1.00;;;;;;6300401;28;20243;-53
2022/10/31 05:40:36;;;;;;;20.23;16.23;;;11.80;1.00;;;;;;6296815;28;20233;-55
2022/10/31 05:43:39;;;;;;;18.83;16.80;;;11.80;1.00;;;;;;6304678;28;20258;-54
2022/10/31 05:46:42;;;;;;;19.67;15.03;;;11.80;1.00;;;;;;6297834;28;20475;-55
2022/10/31 05:49:45;;;;;;;22.33;16.00;;;11.90;1.00;;;;;;6310092;28;20251;-54
2022/10/31 05:52:55;;;;;;;25.00;17.43;;;11.90;1.00;;;;;;6303124;28;20275;-55
2022/10/31 05:55:58;;;;;;;17.70;15.73;;;11.90;1.00;;;;;;6302082;28;20316;-60
2022/10/31 05:59:01;;;;;;;30.10;18.77;;;12.00;1.00;;;;;;6311339;28;20724;-54
2022/10/31 06:02:04;;;;;;;25.80;16.70;;;12.00;1.00;;;;;;6300480;28;20248;-55
2022/10/31 06:05:07;;;;;;;20.70;17.13;;;12.10;1.00;;;;;;6297139;28;20241;-55
2022/10/31 06:08:11;;;;;;;26.73;18.27;;;12.20;1.00;;;;;;6305494;28;20496;-54
2022/10/31 06:11:14;;;;;;;22.23;18.10;;;12.20;1.00;;;;;;6295907;28;20248;-55
2022/10/31 06:14:17;;;;;;;24.17;17.40;;;12.30;1.00;;;;;;6299896;28;20251;-55
2022/10/31 06:17:20;;;;;;;18.60;15.67;;;12.40;1.00;;;;;;6293222;28;20251;-54
2022/10/31 06:20:23;;;;;;;22.83;17.00;;;12.40;1.00;;;;;;6307059;28;20475;-54
2022/10/31 06:23:27;;;;;;;26.30;17.57;;;12.40;1.00;;;;;;6294458;27;20759;-55
2022/10/31 06:26:30;;;;;;;26.70;17.07;;;12.50;1.00;;;;;;6309280;28;20244;-55
2022/10/31 06:29:33;;;;;;;24.60;17.23;;;12.50;1.00;;;;;;6304574;28;20221;-54
2022/10/31 06:32:36;;;;;;;26.27;18.17;;;12.60;1.00;;;;;;6302410;28;20237;-54
2022/10/31 06:35:38;;;;;;;21.80;16.73;;;12.60;1.00;;;;;;6310081;28;20243;-54
2022/10/31 06:38:43;;;;;;;19.10;16.33;;;12.70;1.00;;;;;;6300296;28;20400;-55
2022/10/31 06:41:52;;;;;;;20.83;15.83;;;12.70;1.00;;;;;;6295339;28;20233;-55
2022/10/31 06:44:55;;;;;;;17.83;15.73;;;12.80;1.00;;;;;;6300675;28;20499;-54
2022/10/31 06:47:58;;;;;;;18.00;15.93;;;12.80;1.00;;;;;;6291530;28;20236;-54
2022/10/31 06:51:21;;;;;;;26.17;16.97;;;12.90;1.00;;;;;;6289080;28;20310;-54
2022/10/31 06:54:25;;;;;;;25.57;18.27;;;13.00;1.00;;;;;;6292417;28;20710;-55
2022/10/31 06:57:28;;;;;;;26.83;17.70;;;13.00;1.00;;;;;;6306715;28;20228;-54
2022/10/31 07:00:31;;;;;;;25.73;17.80;;;13.10;1.00;;;;;;6298256;28;20247;-55
2022/10/31 07:03:34;;;;;;;20.47;16.10;;;13.10;1.00;;;;;;6294095;28;20244;-55
2022/10/31 07:06:37;;;;;;;24.37;17.33;;;13.10;1.00;;;;;;6303691;28;20240;-54
2022/10/31 07:09:45;;;;;;;26.10;18.30;;;13.20;1.00;;;;;;6295140;28;20279;-56
2022/10/31 07:12:55;;;;;;;24.07;17.97;;;13.30;1.00;;;;;;6309214;28;20237;-54
2022/10/31 07:16:02;;;;;;;24.77;17.87;;;13.40;1.00;;;;;;6299305;28;20233;-55
2022/10/31 07:19:05;;;;;;;21.67;16.20;;;13.50;1.00;;;;;;6288616;28;20237;-56
2022/10/31 07:22:08;;;;;;;24.40;16.57;;;13.60;1.00;;;;;;6307127;28;20259;-56
2022/10/31 07:25:15;;;;;;;22.73;17.90;;;13.80;1.00;;;;;;6300540;28;20229;-56
2022/10/31 07:28:17;;;;;;;26.13;18.03;;;13.90;1.00;;;;;;6283972;28;20236;-53
2022/10/31 07:31:20;;;;;;;22.60;17.20;;;14.00;1.00;;;;;;6304126;28;20720;-54
2022/10/31 07:34:23;;;;;;;22.10;17.83;;;14.10;1.00;;;;;;6296799;27;20378;-54
2022/10/31 07:37:38;;;;;;;22.23;16.83;;;14.20;1.00;;;;;;6294531;28;20609;-54
2022/10/31 07:40:43;;;;;;;30.10;16.77;;;14.40;1.00;;;;;;6306259;28;20247;-56
2022/10/31 07:43:46;;;;;;;24.63;16.93;;;14.60;1.00;;;;;;6293040;28;20229;-56
2022/10/31 07:46:49;;;;;;;19.37;16.13;;;14.70;1.00;;;;;;6298358;28;21311;-54
2022/10/31 07:49:52;;;;;;;24.67;17.33;;;14.80;1.00;;;;;;6293404;28;20702;-56
2022/10/31 07:53:02;;;;;;;24.83;18.57;;;14.80;1.00;;;;;;6300104;28;20627;-54
2022/10/31 07:56:06;;;;;;;23.90;17.83;;;14.90;1.00;;;;;;6297881;28;20228;-54
2022/10/31 07:59:09;;;;;;;32.53;18.40;;;15.00;1.00;;;;;;6284955;28;20232;-49
2022/10/31 08:02:12;;;;;;;25.97;19.70;;;15.00;1.00;;;;;;6288139;28;20239;-54
2022/10/31 08:05:15;;;;;;;31.83;21.00;;;15.10;1.00;;;;;;6303402;28;20233;-55
2022/10/31 08:08:18;;;;;;;27.23;20.93;;;15.00;1.00;;;;;;6295499;28;20612;-54
2022/10/31 08:11:25;;;;;;;31.57;20.87;;;15.00;1.00;;;;;;6300340;28;20624;-55
2022/10/31 08:14:28;;;;;;;30.37;20.93;;;15.00;1.00;;;;;;6288923;28;20232;-56
2022/10/31 08:17:31;;;;;;;28.17;21.87;;;15.00;1.00;;;;;;6303034;28;20307;-54
2022/10/31 08:20:34;;;;;;;28.70;20.93;;;15.00;1.00;;;;;;6288983;28;20229;-54
2022/10/31 08:23:37;;;;;;;33.90;21.80;;;15.00;1.00;;;;;;6283346;28;20753;-55
2022/10/31 08:26:41;;;;;;;29.47;23.40;;;15.00;1.00;;;;;;6285653;28;20232;-54
2022/10/31 08:29:44;;;;;;;33.67;24.47;;;15.00;1.00;;;;;;6294978;28;20243;-55
2022/10/31 08:32:47;;;;;;;32.80;24.17;;;15.00;1.00;;;;;;6299072;28;20239;-55
2022/10/31 08:35:50;;;;;;;29.60;22.80;;;15.00;1.00;;;;;;6302649;28;20233;-55
2022/10/31 08:38:53;;;;;;;37.50;24.27;;;14.90;1.00;;;;;;6295852;28;20240;-55
2022/10/31 08:42:05;;;;;;;39.40;27.53;;;14.90;1.00;;;;;;6286030;28;20236;-55
2022/10/31 08:45:08;;;;;;;42.87;27.83;;;14.90;1.00;;;;;;6297648;28;20736;-55
2022/10/31 08:48:13;;;;;;;38.43;28.37;;;14.90;1.00;;;;;;6289255;28;20240;-55
2022/10/31 08:51:16;;;;;;;36.50;26.67;;;14.90;1.00;;;;;;6309990;28;20233;-55
2022/10/31 08:54:18;;;;;;;35.60;25.40;;;15.00;1.00;;;;;;6299416;28;20248;-57
2022/10/31 08:57:23;;;;;;;33.27;25.43;;;15.00;1.00;;;;;;6307054;28;20241;-55
2022/10/31 09:00:27;;;;;;;35.07;28.40;;;15.10;1.00;;;;;;6305208;28;20240;-55
2022/10/31 09:03:31;;;;;;;39.80;27.13;;;15.10;1.00;;;;;;6289569;28;20249;-55
2022/10/31 09:06:35;;;;;;;32.57;24.47;;;15.10;1.00;;;;;;6298380;28;20249;-55
2022/10/31 09:09:39;;;;;;;38.80;26.37;;;15.20;1.00;;;;;;6302397;28;20240;-55
2022/10/31 09:12:43;;;;;;;36.30;26.93;;;15.30;1.00;;;;;;6296567;28;20240;-55
2022/10/31 09:15:49;;;;;;;32.37;24.57;;;15.30;1.00;;;;;;6296001;28;20240;-54
2022/10/31 09:18:51;;;;;;;39.87;27.13;;;15.30;1.00;;;;;;6297815;28;20236;-55
2022/10/31 09:21:55;;;;;;;42.73;29.00;;;15.30;1.00;;;;;;6300820;28;20312;-56
2022/10/31 09:24:57;;;;;;;37.70;29.63;;;15.30;1.00;;;;;;6293422;28;20233;-54
2022/10/31 09:28:04;;;;;;;42.23;30.50;;;15.40;1.00;;;;;;6289411;28;20241;-54
2022/10/31 09:31:07;;;;;;;46.37;29.33;;;15.50;1.00;;;;;;6308881;28;20225;-56
2022/10/31 09:34:10;;;;;;;42.93;29.67;;;15.50;1.00;;;;;;6290746;28;20717;-54
2022/10/31 09:37:13;;;;;;;39.43;28.87;;;15.60;1.00;;;;;;6310485;28;20233;-55
2022/10/31 09:40:16;;;;;;;43.83;29.33;;;15.60;1.00;;;;;;6301321;28;20248;-55
2022/10/31 09:43:28;;;;;;;40.73;28.83;;;15.60;1.00;;;;;;6297885;28;20244;-54
2022/10/31 09:46:37;;;;;;;46.20;32.43;;;15.70;1.00;;;;;;6294795;28;20629;-55
2022/10/31 09:50:00;;;;;;;43.53;31.83;;;15.80;1.00;;;;;;6294986;28;20256;-55
2022/10/31 09:53:09;;;;;;;44.80;30.80;;;15.70;1.00;;;;;;6293915;28;20233;-55
2022/10/31 09:56:16;;;;;;;37.93;29.30;;;15.70;1.00;;;;;;6290538;28;20229;-54
2022/10/31 09:59:26;;;;;;;44.27;26.90;;;15.70;1.00;;;;;;6304339;28;20276;-54
2022/10/31 10:02:35;;;;;;;40.23;26.90;;;15.60;1.00;;;;;;6288468;28;20613;-55
2022/10/31 10:05:42;;;;;;;40.37;26.83;;;15.60;1.00;;;;;;6287729;28;20229;-52
2022/10/31 10:08:46;;;;;;;34.97;26.03;;;15.70;1.00;;;;;;6298726;28;20236;-54
2022/10/31 10:12:02;;;;;;;34.63;23.90;;;15.90;1.00;;;;;;6295280;28;21464;-54
2022/10/31 10:15:30;;;;;;;36.20;25.70;;;16.10;1.00;;;;;;6298253;28;20241;-55
2022/10/31 10:18:42;;;;;;;34.23;24.23;;;16.40;1.00;;;;;;6300536;28;20239;-55
2022/10/31 10:21:51;;;;;;;35.37;24.97;;;16.50;1.00;;;;;;6300681;28;20676;-56
2022/10/31 10:25:09;;;;;;;37.60;27.37;;;16.60;1.00;;;;;;6302732;28;20225;-54
2022/10/31 10:28:21;;;;;;;42.67;27.70;;;16.80;1.00;;;;;;6293044;28;20240;-54
2022/10/31 10:31:32;;;;;;;32.00;25.93;;;16.80;1.00;;;;;;6291471;28;20220;-55
2022/10/31 10:34:40;;;;;;;34.13;26.23;;;16.80;1.00;;;;;;6290789;28;20402;-56
2022/10/31 10:37:46;;;;;;;44.30;28.73;;;16.90;1.00;;;;;;6285142;28;20333;-54
2022/10/31 10:40:49;;;;;;;40.50;28.07;;;17.00;1.00;;;;;;6315450;28;20235;-55
2022/10/31 10:43:54;;;;;;;40.37;27.23;;;17.10;1.00;;;;;;6290415;28;20236;-55
2022/10/31 10:50:35;;;;;;;38.50;26.77;;;17.30;1.00;;;;;;6292930;28;20676;-54
2022/10/31 10:54:00;;;;;;;37.37;27.63;;;17.40;1.00;;;;;;6296176;28;20241;-55
2022/10/31 10:57:19;;;;;;;41.10;24.50;;;17.60;1.00;;;;;;6285288;28;20270;-54
2022/10/31 11:00:28;;;;;;;44.33;26.23;;;17.80;1.00;;;;;;6294266;28;20630;-55
2022/10/31 11:03:36;;;;;;;34.23;22.87;;;17.80;1.00;;;;;;6302805;28;20244;-56
2022/10/31 11:06:39;;;;;;;33.77;25.73;;;18.00;1.00;;;;;;6307590;28;20233;-55
2022/10/31 11:09:42;;;;;;;33.13;24.67;;;18.20;1.00;;;;;;6294586;28;20242;-55
2022/10/31 11:12:57;;;;;;;37.03;23.97;;;18.40;1.00;;;;;;6290409;28;20230;-55
2022/10/31 11:16:05;;;;;;;34.73;22.23;;;18.40;1.00;;;;;;6291182;28;20726;-55
2022/10/31 11:19:15;;;;;;;43.43;25.37;;;18.50;1.00;;;;;;6289341;28;20217;-55
2022/10/31 11:22:18;;;;;;;42.03;24.23;;;18.60;1.00;;;;;;6296132;28;20241;-55
2022/10/31 11:25:22;;;;;;;39.90;23.17;;;18.70;1.00;;;;;;6307277;28;20236;-55
2022/10/31 11:28:26;;;;;;;36.73;25.80;;;18.80;1.00;;;;;;6299075;28;20233;-55
2022/10/31 11:31:35;;;;;;;36.23;26.67;;;18.80;1.00;;;;;;6291712;28;20239;-56
2022/10/31 11:34:46;;;;;;;37.73;25.30;;;18.90;1.00;;;;;;6304711;28;20244;-55
2022/10/31 11:37:51;;;;;;;35.33;25.03;;;19.00;1.00;;;;;;6294379;28;20224;-55
2022/10/31 11:41:00;;;;;;;30.73;24.13;;;19.10;1.00;;;;;;6298629;28;20240;-56
2022/10/31 11:44:06;;;;;;;33.07;23.03;;;19.30;1.00;;;;;;6285532;28;20234;-54
2022/10/31 11:47:15;;;;;;;37.40;24.73;;;19.50;1.00;;;;;;6294982;28;20698;-55
2022/10/31 11:50:25;;;;;;;33.80;26.43;;;19.50;1.00;;;;;;6289805;28;20236;-55
2022/10/31 11:53:30;;;;;;;38.13;28.10;;;19.50;1.00;;;;;;6299076;28;20237;-55
2022/10/31 11:56:40;;;;;;;41.70;30.97;;;19.50;1.00;;;;;;6296878;28;20597;-54
2022/10/31 11:59:52;;;;;;;38.90;29.63;;;19.50;1.00;;;;;;6288648;28;20312;-55
2022/10/31 12:03:24;;;;;;;44.03;29.27;;;19.50;1.00;;;;;;6298777;28;20229;-55
2022/10/31 12:06:32;;;;;;;42.37;27.10;;;19.50;1.00;;;;;;6297935;28;20236;-55
2022/10/31 12:09:36;;;;;;;39.87;26.00;;;19.50;1.00;;;;;;6295825;28;21441;-56
2022/10/31 12:12:58;;;;;;;37.03;27.00;;;19.50;1.00;;;;;;6290856;28;20236;-55
2022/10/31 12:16:12;;;;;;;44.67;30.40;;;19.60;1.00;;;;;;6302267;28;20229;-55
2022/10/31 12:19:25;;;;;;;48.20;30.67;;;19.40;1.00;;;;;;6289956;28;20232;-55
2022/10/31 12:22:37;;;;;;;41.63;29.73;;;19.50;1.00;;;;;;6305134;28;20248;-54
2022/10/31 12:25:47;;;;;;;39.07;27.20;;;19.50;1.00;;;;;;6293382;28;20626;-55
2022/10/31 12:29:08;;;;;;;46.57;30.27;;;19.50;1.00;;;;;;6287221;28;20272;-56
2022/10/31 12:32:25;;;;;;;47.10;30.77;;;19.50;1.00;;;;;;6297446;28;20505;-55
2022/10/31 12:35:40;;;;;;;40.13;30.30;;;19.40;1.00;;;;;;6298048;28;20597;-56
2022/10/31 12:39:03;;;;;;;43.73;30.20;;;19.50;1.00;;;;;;6299116;28;20778;-55
2022/10/31 12:42:18;;;;;;;36.40;28.17;;;19.50;1.00;;;;;;6295243;28;20256;-55
2022/10/31 12:45:41;;;;;;;34.33;24.93;;;19.50;1.00;;;;;;6298578;28;20231;-56
2022/10/31 12:49:28;;;;;;;41.57;29.77;;;19.60;1.00;;;;;;6290835;28;20234;-56
2022/10/31 12:52:48;;;;;;;46.30;31.37;;;19.60;1.00;;;;;;6298551;28;20725;-55
2022/10/31 12:56:10;;;;;;;41.37;30.33;;;19.50;1.00;;;;;;6295636;28;20741;-55
2022/10/31 12:59:24;;;;;;;29.73;22.57;;;19.40;1.00;;;;;;6290600;28;20237;-56
2022/10/31 13:02:34;;;;;;;35.47;28.07;;;19.40;1.00;;;;;;6295080;28;20260;-55
2022/10/31 13:05:41;;;;;;;39.70;28.43;;;19.40;1.00;;;;;;6297999;28;20239;-55
2022/10/31 13:08:48;;;;;;;48.20;30.20;;;19.50;1.00;;;;;;6296384;28;20608;-56
2022/10/31 13:11:57;;;;;;;49.43;30.90;;;19.50;1.00;;;;;;6297073;28;20252;-55
2022/10/31 13:15:05;;;;;;;30.27;25.50;;;19.50;1.00;;;;;;6300128;28;20240;-55
2022/10/31 13:18:20;;;;;;;36.80;26.20;;;19.50;1.00;;;;;;6288855;28;20629;-55
2022/10/31 13:21:26;;;;;;;46.27;30.47;;;19.50;1.00;;;;;;6298335;28;20240;-54
2022/10/31 13:24:37;;;;;;;35.07;24.30;;;19.50;1.00;;;;;;6298526;28;20612;-55
2022/10/31 13:27:48;;;;;;;32.53;25.60;;;19.40;1.00;;;;;;6293853;28;20229;-54
2022/10/31 13:30:53;;;;;;;42.57;24.57;;;19.40;1.00;;;;;;6300162;28;20233;-54
2022/10/31 13:34:00;;;;;;;35.87;25.50;;;19.40;1.00;;;;;;6301733;28;20506;-55
2022/10/31 13:37:14;;;;;;;27.13;21.03;;;19.30;1.00;;;;;;6308438;28;20232;-55
2022/10/31 13:40:30;;;;;;;31.23;23.20;;;19.30;1.00;;;;;;6305190;27;20303;-54
2022/10/31 13:43:51;;;;;;;35.43;26.60;;;19.30;1.00;;;;;;6294487;28;20242;-55
2022/10/31 13:46:56;;;;;;;41.20;25.40;;;19.30;1.00;;;;;;6289270;28;20243;-57
2022/10/31 13:50:19;;;;;;;31.50;22.37;;;19.20;1.00;;;;;;6294686;28;20597;-57
2022/10/31 13:53:24;;;;;;;34.27;26.60;;;19.20;1.00;;;;;;6305087;28;20343;-55
2022/10/31 13:56:29;;;;;;;42.53;27.90;;;19.10;1.00;;;;;;6291799;28;20244;-55
2022/10/31 13:59:38;;;;;;;35.70;27.33;;;19.10;1.00;;;;;;6305681;28;20697;-55
2022/10/31 14:02:48;;;;;;;36.33;25.93;;;19.00;1.00;;;;;;6303279;28;20300;-54
2022/10/31 14:05:54;;;;;;;28.93;21.40;;;18.90;1.00;;;;;;6290653;28;20646;-55
2022/10/31 14:08:57;;;;;;;31.00;20.70;;;18.80;1.00;;;;;;6305137;28;20248;-55
2022/10/31 14:12:04;;;;;;;33.20;23.23;;;18.80;1.00;;;;;;6299902;28;20619;-55
2022/10/31 14:15:17;;;;;;;30.53;23.87;;;18.70;1.00;;;;;;6287582;28;20346;-56
2022/10/31 14:18:25;;;;;;;26.03;19.63;;;18.60;1.00;;;;;;6301738;28;20709;-55
2022/10/31 14:21:29;;;;;;;35.30;24.43;;;18.50;1.00;;;;;;6293500;28;20237;-55
2022/10/31 14:24:35;;;;;;;26.73;22.93;;;18.40;1.00;;;;;;6305964;28;20255;-56
2022/10/31 14:27:47;;;;;;;33.03;24.53;;;18.40;1.00;;;;;;6297574;28;20233;-59
2022/10/31 14:30:56;;;;;;;40.93;25.13;;;18.30;1.00;;;;;;6301685;28;20608;-55
2022/10/31 14:34:00;;;;;;;37.03;27.27;;;18.20;1.00;;;;;;6282043;28;20229;-54
2022/10/31 14:37:33;;;;;;;47.20;31.97;;;18.10;1.00;;;;;;6307870;28;20613;-55
2022/10/31 14:40:47;;;;;;;50.17;34.07;;;18.00;1.00;;;;;;6299350;28;20703;-54
2022/10/31 14:44:09;;;;;;;47.03;34.53;;;17.90;1.00;;;;;;6291151;28;20273;-60
2022/10/31 14:47:27;;;;;;;50.73;32.80;;;17.90;1.00;;;;;;6301536;28;20733;-56
2022/10/31 14:50:42;;;;;;;52.13;35.07;;;17.80;1.00;;;;;;6303792;28;20241;-55
2022/10/31 14:53:49;;;;;;;52.03;36.13;;;17.70;1.00;;;;;;6301794;28;20244;-56
2022/10/31 14:56:54;;;;;;;53.10;36.20;;;17.60;1.00;;;;;;6292941;28;20838;-55
2022/10/31 15:00:01;;;;;;;50.57;35.60;;;17.40;1.00;;;;;;6307104;28;20616;-55
2022/10/31 15:03:14;;;;;;;52.77;36.13;;;17.30;1.00;;;;;;6295778;28;20280;-55
2022/10/31 15:06:19;;;;;;;44.23;32.60;;;17.10;1.00;;;;;;6297368;28;20702;-56
2022/10/31 15:09:25;;;;;;;54.33;36.17;;;17.00;1.00;;;;;;6289661;28;20251;-55
2022/10/31 15:12:31;;;;;;;52.50;35.17;;;17.00;1.00;;;;;;6299690;28;20232;-56
2022/10/31 15:15:34;;;;;;;49.20;33.90;;;16.90;1.00;;;;;;6301764;28;20618;-55
2022/10/31 15:18:47;;;;;;;46.70;33.57;;;16.80;1.00;;;;;;6285565;28;20737;-55
2022/10/31 15:21:52;;;;;;;44.40;32.90;;;16.70;1.00;;;;;;6300559;28;20240;-55
2022/10/31 15:24:56;;;;;;;47.30;33.43;;;16.60;1.00;;;;;;6300371;28;20246;-54
2022/10/31 15:27:59;;;;;;;60.50;38.10;;;16.50;1.00;;;;;;6291084;28;20233;-55
2022/10/31 15:31:03;;;;;;;57.00;36.87;;;16.40;1.00;;;;;;6292278;28;20338;-55
2022/10/31 15:34:21;;;;;;;48.77;36.03;;;16.40;1.00;;;;;;6291936;28;20471;-55
2022/10/31 15:37:26;;;;;;;52.30;34.93;;;16.30;1.00;;;;;;6301222;28;20686;-54
2022/10/31 15:40:29;;;;;;;46.03;31.90;;;16.20;1.00;;;;;;6293435;28;20373;-55
2022/10/31 15:43:36;;;;;;;39.47;30.10;;;16.10;1.00;;;;;;6289699;28;20233;-55
2022/10/31 15:46:39;;;;;;;41.20;31.63;;;16.10;1.00;;;;;;6300594;28;20232;-55
2022/10/31 15:49:48;;;;;;;49.40;33.53;;;16.00;1.00;;;;;;6296007;28;20240;-55
2022/10/31 15:52:51;;;;;;;44.93;31.03;;;15.90;1.00;;;;;;6294078;28;20252;-55
2022/10/31 15:55:56;;;;;;;48.77;35.17;;;15.90;1.00;;;;;;6282861;28;20359;-55
2022/10/31 15:59:01;;;;;;;51.67;35.00;;;15.90;1.00;;;;;;6279470;28;20245;-55
2022/10/31 16:02:11;;;;;;;51.40;38.00;;;15.70;1.00;;;;;;6294270;28;20233;-53
2022/10/31 16:05:20;;;;;;;48.80;34.57;;;15.80;1.00;;;;;;6304805;28;20479;-54